Smithsburg, Maryland
Current Conditions -  °F | °C
As of 6:53 AM on Friday 19 Dec 2014 (Local Time) from KRYT Reporting Station
Overcast Overcast  
Wind Chill: 27°   Ceiling: 2400
Heat Index: 32°   Visibility: 10mi
Dew Point: 22°   Wind: 5mph
Humidity: 66%   Direction: NA
Pressure: 30.06"   Gusts: NA
Location:  39.65°N, 77.57°W
Report Text: KRYT 191153Z AUTO VRB04KT 10SM OVC024 00/M06 A3006 RMK AO2 SLP196 T00001056 10000 21006 53005 $
Loading
Personal Weather Stations






























Interactive Weather Map New forecast layout! Learn more

10-Day Weather Forecast

Advertisements
Track Severe Weather on mobile